Latest Weather Observations for Canterbury

IDN60901

Issued at 9:31 am EST Saturday 23 May 2015 (issued every 10 minutes, with the page automatically refreshed every 10 minutes)

About weather observations | Map of Sydney area stations | Latest observations for Sydney area | Other Formats
Station Details ID: 066194 Name: CANTERBURY RACECOURSE AWS Lat: -33.91 Lon: 151.11 Height: 3.0 m
Data from the previous 72 hours. | See also: Recent months at Canterbury
Date/Time
EST
Tmp

°C
App
Tmp
°C
Dew
Point
°C
Rel
Hum
%
Delta-T

°C
Wind Press
QNH
hPa
Press
MSL
hPa
Rain
since
9 am
mm
Dir
 
Spd
km/h
Gust
km/h
Spd
kts
Gust
kts
23/09:30am 12.9 8.8 6.3 64 3.1 WSW 17 22 9 12 - - 0.0
23/09:00am 11.9 8.5 5.8 66 2.8 WSW 13 20 7 11 - - 29.0
23/08:30am 11.1 7.6 5.4 68 2.6 WSW 13 26 7 14 - - 29.0
23/08:00am 10.8 7.3 5.6 70 2.4 SW 13 20 7 11 - - 29.0
23/07:30am 10.7 6.9 5.7 71 2.3 SW 15 22 8 12 - - 29.0
23/07:00am 10.6 6.9 6.4 75 2.0 SW 15 24 8 13 - - 29.0
23/06:30am 10.3 7.1 6.8 79 1.6 SW 13 19 7 10 - - 29.0
23/06:00am 9.5 7.2 7.4 87 1.0 W 9 15 5 8 - - 29.0
23/05:30am 8.8 6.1 7.3 90 0.7 WNW 11 15 6 8 - - 29.0
23/05:00am 8.9 7.0 7.4 90 0.7 WNW 7 11 4 6 - - 29.0
23/04:30am 9.6 7.4 7.7 88 0.9 W 9 13 5 7 - - 29.0
23/04:00am 10.1 8.1 8.7 91 0.7 W 9 13 5 7 - - 29.0
23/03:30am 10.1 7.8 9.0 93 0.5 W 11 15 6 8 - - 29.0
23/03:00am 10.5 8.8 9.7 95 0.4 W 9 15 5 8 - - 29.0
23/02:57am 10.5 8.4 9.7 95 0.4 W 11 15 6 8 - - 29.0
23/02:40am 10.8 9.2 10.2 96 0.3 WSW 9 17 5 9 - - 29.0
23/02:30am 10.8 8.4 10.2 96 0.3 WSW 13 19 7 10 - - 28.8
23/02:13am 10.8 8.8 10.2 96 0.3 WSW 11 15 6 8 - - 28.8
23/02:00am 10.9 8.6 10.4 97 0.3 WSW 13 19 7 10 - - 28.8
23/01:30am 10.9 8.9 10.3 96 0.3 WSW 11 15 6 8 - - 27.8
23/01:14am 10.9 8.6 10.3 96 0.3 WSW 13 20 7 11 - - 27.6
23/01:05am 10.8 8.4 10.2 96 0.3 W 13 20 7 11 - - 27.4
23/01:00am 10.8 8.1 10.2 96 0.3 W 15 20 8 11 - - 27.4
23/12:52am 10.8 8.1 10.2 96 0.3 WSW 15 20 8 11 - - 27.4
23/12:41am 10.8 8.1 10.2 96 0.3 WSW 15 22 8 12 - - 27.2
23/12:30am 10.8 7.7 10.2 96 0.3 WSW 17 24 9 13 - - 27.2
23/12:29am 10.8 7.7 10.2 96 0.3 WSW 17 24 9 13 - - 27.2
23/12:22am 10.8 8.4 10.2 96 0.3 WSW 13 24 7 13 - - 27.0
23/12:02am 10.7 7.9 9.9 95 0.4 WSW 15 22 8 12 - - 26.8
23/12:00am 10.8 8.0 10.0 95 0.4 WSW 15 22 8 12 - - 26.6
 
Date/Time
EST
Tmp

°C
App
Tmp
°C
Dew
Point
°C
Rel
Hum
%
Delta-T

°C
Wind Press
QNH
hPa
Press
MSL
hPa
Rain
since
9 am
mm
Dir
 
Spd
km/h
Gust
km/h
Spd
kts
Gust
kts
22/11:58pm 10.8 8.0 10.0 95 0.4 WSW 15 22 8 12 - - 26.6
22/11:30pm 10.8 9.5 10.0 95 0.4 WSW 7 13 4 7 - - 26.2
22/11:02pm 11.0 9.0 10.2 95 0.4 W 11 19 6 10 - - 24.0
22/11:00pm 11.0 8.6 10.2 95 0.4 W 13 19 7 10 - - 23.6
22/10:54pm 10.9 8.5 10.1 95 0.4 W 13 19 7 10 - - 23.4
22/10:30pm 11.0 8.6 10.2 95 0.4 WSW 13 22 7 12 - - 22.4
22/10:24pm 11.0 8.6 10.2 95 0.4 W 13 22 7 12 - - 21.8
22/10:13pm 11.0 8.3 10.2 95 0.4 W 15 24 8 13 - - 21.4
22/10:00pm 11.1 8.8 10.3 95 0.4 WSW 13 20 7 11 - - 21.4
22/09:30pm 11.3 8.6 10.5 95 0.4 SW 15 24 8 13 - - 20.0
22/09:23pm 11.4 8.8 10.6 95 0.4 SW 15 22 8 12 - - 19.8
22/09:00pm 11.3 8.2 10.4 94 0.5 WSW 17 20 9 11 - - 19.4
22/08:39pm 11.2 8.9 10.3 94 0.5 WSW 13 20 7 11 - - 19.4
22/08:30pm 11.2 8.5 10.3 94 0.5 WSW 15 24 8 13 - - 19.4
22/08:25pm 11.2 8.0 10.1 93 0.6 WSW 17 24 9 13 - - 19.4
22/08:06pm 11.4 8.7 10.3 93 0.6 WSW 15 20 8 11 - - 19.0
22/08:00pm 11.5 9.2 10.4 93 0.6 WSW 13 20 7 11 - - 19.0
22/07:52pm 11.6 9.7 10.5 93 0.6 WSW 11 19 6 10 - - 19.0
22/07:41pm 11.6 8.9 10.3 92 0.7 WSW 15 22 8 12 - - 18.8
22/07:30pm 11.9 9.6 10.6 92 0.7 SW 13 20 7 11 - - 18.6
22/07:07pm 12.0 10.1 10.4 90 0.8 SW 11 17 6 9 - - 18.2
22/07:01pm 11.9 9.9 10.1 89 0.9 SSW 11 17 6 9 - - 18.0
22/07:00pm 11.9 9.9 10.1 89 0.9 SSW 11 17 6 9 - - 18.0
22/06:30pm 11.9 9.2 10.3 90 0.8 SSW 15 30 8 16 - - 17.4
22/06:22pm 12.0 9.3 10.2 89 0.9 SSW 15 26 8 14 - - 16.4
22/06:19pm 12.0 9.3 10.2 89 0.9 SW 15 26 8 14 - - 16.4
22/06:00pm 12.1 8.5 10.7 91 0.7 S 20 35 11 19 - - 16.2
22/05:30pm 12.9 9.6 9.7 81 1.6 SSW 17 26 9 14 - - 12.6
22/05:00pm 13.5 9.6 9.6 77 2.0 SSW 20 33 11 18 - - 12.0
22/04:30pm 14.1 9.4 9.3 73 2.4 SSW 24 43 13 23 - - 12.0
22/04:00pm 14.4 10.4 9.0 70 2.7 SSW 20 35 11 19 - - 12.0
22/03:30pm 14.1 8.6 9.3 73 2.4 S 28 46 15 25 - - 12.0
22/03:00pm 16.0 9.3 7.2 56 4.4 S 32 50 17 27 - - 11.8
22/02:30pm 15.8 9.0 7.8 59 4.0 S 33 54 18 29 - - 11.8
22/02:14pm 16.2 10.3 7.7 57 4.3 S 28 54 15 29 - - 11.8
22/02:00pm 15.3 10.6 9.2 67 3.1 SSW 24 37 13 20 - - 11.8
22/01:30pm 15.6 10.9 9.3 66 3.2 SSW 24 39 13 21 - - 11.8
22/01:00pm 15.2 8.7 8.9 66 3.2 SSW 33 54 18 29 - - 11.8
22/12:30pm 15.8 9.9 9.2 65 3.4 S 30 54 16 29 - - 11.8
22/12:00pm 15.9 10.4 9.1 64 3.5 S 28 54 15 29 - - 11.8
22/11:35am 15.3 10.1 10.1 71 2.7 S 28 56 15 30 - - 11.8
22/11:30am 15.3 11.0 10.9 75 2.3 S 24 43 13 23 - - 11.8
22/11:11am 15.1 9.9 11.5 79 1.9 SSE 30 54 16 29 - - 11.8
22/11:00am 14.8 10.1 11.9 83 1.6 SSE 28 44 15 24 - - 11.8
22/10:56am 14.6 9.9 12.1 85 1.4 SSE 28 41 15 22 - - 11.8
22/10:30am 13.8 10.5 12.9 94 0.5 SSE 22 56 12 30 - - 11.0
22/10:28am 13.7 7.5 12.8 94 0.5 SE 37 56 20 30 - - 11.0
22/10:27am 13.5 11.5 12.6 94 0.5 SSE 15 56 8 30 - - 10.8
22/10:00am 13.5 10.2 11.6 88 1.0 S 20 33 11 18 - - 3.2
22/09:45am 14.4 12.4 12.6 89 1.0 S 15 22 8 12 - - 1.0
22/09:30am 14.5 12.4 12.5 88 1.1 S 15 24 8 13 - - 0.0
22/09:01am 13.9 10.8 11.6 86 1.2 S 19 28 10 15 - - 0.0
22/09:00am 13.8 10.6 11.3 85 1.3 S 19 35 10 19 - - 8.6
22/08:30am 13.8 11.7 12.5 92 0.7 S 15 30 8 16 - - 7.8
22/08:00am 12.1 10.8 11.2 94 0.5 WSW 9 13 5 7 - - 6.2
22/07:30am 12.0 10.5 10.7 92 0.7 WSW 9 15 5 8 - - 3.2
22/07:14am 12.0 9.4 10.6 91 0.7 WSW 15 22 8 12 - - 2.6
22/07:00am 12.1 9.1 10.5 90 0.8 WSW 17 22 9 12 - - 2.2
22/06:30am 12.2 9.9 10.4 89 0.9 WSW 13 22 7 12 - - 1.8
22/06:27am 12.2 9.9 10.4 89 0.9 WSW 13 20 7 11 - - 1.8
22/06:00am 12.2 10.1 9.6 84 1.3 WSW 11 15 6 8 - - 1.0
22/05:54am 12.4 10.2 9.4 82 1.5 WSW 11 15 6 8 - - 0.8
22/05:30am 12.7 9.9 8.6 76 2.0 WSW 13 17 7 9 - - 0.2
22/05:00am 12.6 9.0 8.3 75 2.1 WSW 17 24 9 13 - - 0.2
22/04:30am 12.6 9.7 8.1 74 2.2 WSW 13 22 7 12 - - 0.2
22/04:00am 12.7 9.7 7.8 72 2.4 WSW 13 20 7 11 - - 0.2
22/03:30am 12.6 9.6 7.9 73 2.3 W 13 20 7 11 - - 0.2
22/03:00am 12.4 9.8 7.9 74 2.2 WSW 11 19 6 10 - - 0.2
22/02:30am 12.1 9.1 7.8 75 2.1 W 13 17 7 9 - - 0.2
22/02:00am 11.9 9.3 7.8 76 2.0 W 11 19 6 10 - - 0.2
22/01:30am 11.9 9.4 8.2 78 1.8 W 11 17 6 9 - - 0.2
22/01:00am 12.0 9.2 8.5 79 1.7 W 13 17 7 9 - - 0.2
22/12:30am 11.8 9.8 8.6 81 1.6 WNW 9 13 5 7 - - 0.2
22/12:00am 12.2 10.2 8.7 79 1.7 W 9 13 5 7 - - 0.2
 
Date/Time
EST
Tmp

°C
App
Tmp
°C
Dew
Point
°C
Rel
Hum
%
Delta-T

°C
Wind Press
QNH
hPa
Press
MSL
hPa
Rain
since
9 am
mm
Dir
 
Spd
km/h
Gust
km/h
Spd
kts
Gust
kts
21/11:30pm 12.6 10.4 9.2 80 1.7 W 11 15 6 8 - - 0.2
21/11:00pm 12.7 10.9 9.3 80 1.7 W 9 15 5 8 - - 0.2
21/10:30pm 13.9 11.3 9.5 75 2.3 WSW 13 17 7 9 - - 0.2
21/10:00pm 14.1 12.1 10.1 77 2.1 SW 11 15 6 8 - - 0.2
21/09:30pm 14.2 12.8 11.0 81 1.7 SSW 9 15 5 8 - - 0.2
21/09:00pm 14.4 12.8 11.6 83 1.5 SSW 11 24 6 13 - - 0.2
21/08:30pm 13.8 13.5 11.3 85 1.3 SSE 4 9 2 5 - - 0.2
21/08:00pm 14.0 11.6 11.3 84 1.4 SSE 15 24 8 13 - - 0.2
21/07:30pm 14.3 11.9 10.1 76 2.2 S 13 22 7 12 - - 0.2
21/07:00pm 15.4 12.8 12.0 80 1.8 SSE 17 24 9 13 - - 0.2
21/06:30pm 15.1 11.8 10.9 76 2.2 SSE 19 30 10 16 - - 0.2
21/06:00pm 16.3 13.7 10.8 70 2.9 S 15 24 8 13 - - 0.2
21/05:30pm 16.5 14.9 10.1 66 3.4 S 9 17 5 9 - - 0.2
21/05:00pm 16.7 14.7 10.1 65 3.5 S 11 19 6 10 - - 0.2
21/04:30pm 17.1 14.7 10.2 64 3.7 S 13 22 7 12 - - 0.0
21/04:00pm 17.9 15.6 10.5 62 4.0 SSE 13 17 7 9 - - 0.0
21/03:30pm 17.9 15.5 10.0 60 4.2 SSE 13 22 7 12 - - 0.0
21/03:00pm 18.7 16.2 9.8 56 4.7 SSE 13 19 7 10 - - 0.0
21/02:30pm 18.2 14.8 9.3 56 4.7 SSE 17 26 9 14 - - 0.0
21/02:00pm 18.6 15.7 9.7 56 4.7 S 15 22 8 12 - - 0.0
21/01:30pm 18.4 15.8 10.7 61 4.1 SSE 15 20 8 11 - - 0.0
21/01:00pm 18.0 15.7 10.4 61 4.1 S 13 20 7 11 - - 0.0
21/12:30pm 19.6 18.8 9.8 53 5.2 S 4 19 2 10 - - 0.0
21/12:00pm 19.1 17.3 9.3 53 5.2 SW 9 15 5 8 - - 0.0
21/11:30am 18.7 16.6 8.4 51 5.3 WSW 9 15 5 8 - - 0.0
21/11:00am 18.3 15.8 8.3 52 5.1 WSW 11 15 6 8 - - 0.0
21/10:30am 18.1 15.6 8.1 52 5.1 WSW 11 17 6 9 - - 0.0
21/10:00am 17.0 13.7 8.2 56 4.5 WSW 15 24 8 13 - - 0.0
21/09:30am 16.5 13.4 9.0 61 3.9 WSW 15 22 8 12 - - 0.0
21/09:00am 15.9 13.3 9.3 65 3.4 WSW 13 22 7 12 - - 0.0
21/08:30am 15.4 13.7 10.0 70 2.8 WNW 9 15 5 8 - - 0.0
21/08:00am 13.9 13.0 11.2 84 1.4 WNW 7 11 4 6 - - 0.0
21/07:30am 11.9 11.1 11.1 95 0.4 W 6 7 3 4 - - 0.0
21/07:00am 11.2 10.2 10.3 94 0.5 WNW 6 7 3 4 - - 0.0
21/06:30am 10.9 10.1 9.5 91 0.7 NW 4 6 2 3 - - 0.0
21/06:00am 11.6 11.3 10.2 91 0.7 S 2 7 1 4 - - 0.0
21/05:30am 11.8 10.7 10.7 93 0.6 NW 7 11 4 6 - - 0.0
21/05:00am 10.7 10.4 8.6 87 1.0 CALM 0 0 0 0 - - 0.0
21/04:30am 12.3 12.5 10.4 88 1.0 CALM 0 0 0 0 - - 0.0
21/04:00am 13.9 14.0 10.3 79 1.9 CALM 0 0 0 0 - - 0.0
21/03:30am 15.2 14.7 10.6 74 2.4 WNW 4 7 2 4 - - 0.0
21/03:00am 15.5 14.5 11.1 75 2.3 NW 7 11 4 6 - - 0.0
21/02:30am 15.1 14.9 11.9 81 1.7 WNW 4 9 2 5 - - 0.0
21/02:00am 15.6 15.0 11.8 78 2.1 WNW 6 9 3 5 - - 0.0
21/01:30am 15.8 14.7 12.0 78 2.1 NW 9 11 5 6 - - 0.0
21/01:00am 15.0 14.5 12.0 82 1.6 W 6 9 3 5 - - 0.0
21/12:30am 15.2 14.7 12.1 82 1.7 NW 6 7 3 4 - - 0.0
21/12:00am 14.0 13.8 11.9 87 1.1 WNW 4 6 2 3 - - 0.0
 
Date/Time
EST
Tmp

°C
App
Tmp
°C
Dew
Point
°C
Rel
Hum
%
Delta-T

°C
Wind Press
QNH
hPa
Press
MSL
hPa
Rain
since
9 am
mm
Dir
 
Spd
km/h
Gust
km/h
Spd
kts
Gust
kts
20/11:30pm 14.7 15.1 12.6 87 1.1 WNW 2 6 1 3 - - 0.0
20/11:00pm 15.9 15.8 13.2 84 1.5 NW 6 9 3 5 - - 0.0
20/10:30pm 15.3 15.9 13.1 87 1.2 NNW 2 7 1 4 - - 0.0
20/10:00pm 15.2 15.6 13.6 90 0.9 WSW 4 6 2 3 - - 0.0
20/09:30pm 15.0 16.0 13.2 89 1.0 CALM 0 0 0 0 - - 0.0
20/09:00pm 15.9 17.1 13.9 88 1.1 CALM 0 0 0 0 - - 0.0
20/08:30pm 16.5 17.9 14.5 88 1.1 CALM 0 0 0 0 - - 0.0
20/08:00pm 16.4 17.7 14.2 87 1.3 CALM 0 0 0 0 - - 0.0
20/07:30pm 17.0 18.4 14.5 85 1.4 CALM 0 0 0 0 - - 0.0
20/07:00pm 17.0 18.2 13.9 82 1.8 CALM 0 0 0 0 - - 0.0
20/06:30pm 17.5 18.6 13.6 78 2.2 CALM 0 0 0 0 - - 0.0
20/06:00pm 18.8 19.9 13.6 72 3.0 CALM 0 0 0 0 - - 0.0
20/05:30pm 19.4 19.8 13.8 70 3.2 NNW 4 7 2 4 - - 0.0
20/05:00pm 19.8 19.7 13.3 66 3.7 NNW 6 7 3 4 - - 0.0
20/04:30pm 20.8 21.7 12.8 60 4.5 CALM 0 2 0 1 - - 0.0
20/04:00pm 22.3 21.9 12.3 53 5.7 N 6 9 3 5 - - 0.0
20/03:30pm 22.5 21.5 12.4 52 5.7 N 9 13 5 7 - - 0.0
20/03:00pm 23.0 22.6 12.3 51 6.1 NNW 6 13 3 7 - - 0.0
20/02:30pm 22.9 22.1 11.6 49 6.3 NW 7 13 4 7 - - 0.0
20/02:00pm 23.7 22.7 12.4 49 6.5 NW 9 15 5 8 - - 0.0
20/01:30pm 23.5 23.0 12.5 50 6.3 NW 7 11 4 6 - - 0.0
20/01:00pm 22.0 21.5 12.8 56 5.2 WNW 7 11 4 6 - - 0.0
20/12:30pm 21.4 20.9 12.5 57 5.0 WNW 7 15 4 8 - - 0.0
20/12:00pm 20.7 19.0 11.3 55 5.2 WNW 11 15 6 8 - - 0.0
20/11:30am 20.6 19.4 11.5 56 5.0 NW 9 15 5 8 - - 0.0
20/11:00am 19.6 18.4 11.6 60 4.4 NNW 9 15 5 8 - - 0.0
20/10:30am 19.4 17.9 11.9 62 4.2 NNW 11 17 6 9 - - 0.0
20/10:00am 18.3 17.5 13.0 71 3.0 NNW 9 13 5 7 - - 0.0

Latest Capital City Observations: Canberra | Sydney | Melbourne | Brisbane | Adelaide | Perth | Hobart | Darwin

Other Formats:

Comma delimited format used in spreadsheet applications
http://www.bom.gov.au/fwo/IDN60901/IDN60901.94766.axf

JavaScript Object Notation format (JSON) in row-major order
http://www.bom.gov.au/fwo/IDN60901/IDN60901.94766.json